Time;durP1;ratioP1;P1;durP2;ratioP2;P2;SDS_P1;SDS_P2;PMS_P1;PMS_P2;Temp;Humidity;BMP_temperature;BMP_pressure;BME280_temperature;BME280_humidity;BME280_pressure;Samples;Min_cycle;Max_cycle;Signal;HPM_P1;HPM_P2
2021/07/08 00:02:22;;;;;;;0.50;0.50;;;22.60;99.90;;;;;;5105628;28;20213;-69
2021/07/08 00:04:49;;;;;;;0.75;0.75;;;22.50;99.90;;;;;;5110302;28;20191;-69
2021/07/08 00:07:14;;;;;;;2.70;0.88;;;22.50;99.90;;;;;;5110476;28;20162;-69
2021/07/08 00:09:40;;;;;;;0.63;0.43;;;22.40;99.90;;;;;;5110441;28;20151;-69
2021/07/08 00:12:07;;;;;;;0.55;0.45;;;22.40;99.90;;;;;;5110208;28;20205;-69
2021/07/08 00:14:34;;;;;;;1.77;1.52;;;22.30;99.90;;;;;;5110194;28;20252;-69
2021/07/08 00:17:00;;;;;;;0.88;0.82;;;22.30;99.90;;;;;;5108738;28;20151;-69
2021/07/08 00:19:26;;;;;;;0.55;0.55;;;22.20;99.90;;;;;;5109048;28;20170;-69
2021/07/08 00:21:52;;;;;;;1.02;1.02;;;22.20;99.90;;;;;;5110121;28;20186;-69
2021/07/08 00:24:18;;;;;;;0.55;0.55;;;22.30;99.90;;;;;;5109875;28;20289;-68
2021/07/08 00:26:44;;;;;;;0.52;0.52;;;22.20;99.90;;;;;;5109924;28;20179;-68
2021/07/08 00:29:09;;;;;;;3.13;1.85;;;22.20;99.90;;;;;;5110106;28;20166;-69
2021/07/08 00:31:36;;;;;;;1.13;1.08;;;22.10;99.90;;;;;;5110060;28;20155;-68
2021/07/08 00:34:02;;;;;;;0.75;0.75;;;22.10;99.90;;;;;;5109950;28;20198;-69
2021/07/08 00:36:29;;;;;;;0.82;0.82;;;22.10;99.90;;;;;;5110003;28;20182;-68
2021/07/08 00:38:56;;;;;;;1.05;1.00;;;22.10;99.90;;;;;;5109881;28;20148;-69
2021/07/08 00:41:23;;;;;;;10.73;1.38;;;22.20;99.90;;;;;;5109837;28;20155;-69
2021/07/08 00:43:51;;;;;;;3.15;1.85;;;22.10;99.90;;;;;;5109475;28;20268;-69
2021/07/08 00:46:19;;;;;;;1.33;1.33;;;22.10;99.90;;;;;;5110029;28;20166;-69
2021/07/08 00:48:47;;;;;;;2.35;1.27;;;22.00;99.90;;;;;;5109739;28;20666;-69
2021/07/08 00:51:13;;;;;;;0.60;0.60;;;22.00;99.90;;;;;;5108515;28;20178;-69
2021/07/08 00:53:39;;;;;;;0.85;0.82;;;22.00;99.90;;;;;;5109588;28;20183;-69
2021/07/08 00:56:06;;;;;;;3.40;1.52;;;21.90;99.90;;;;;;5109661;28;20166;-69
2021/07/08 00:58:32;;;;;;;2.88;1.83;;;21.80;99.90;;;;;;5109678;28;20163;-69
2021/07/08 01:01:00;;;;;;;1.15;1.15;;;21.80;99.90;;;;;;5109622;28;20167;-69
2021/07/08 01:03:28;;;;;;;7.22;1.63;;;21.80;99.90;;;;;;5109469;28;20193;-69
2021/07/08 01:05:55;;;;;;;0.52;0.52;;;21.70;99.90;;;;;;5109458;28;20520;-69
2021/07/08 01:08:21;;;;;;;4.57;1.23;;;21.70;99.90;;;;;;5107566;28;20160;-69
2021/07/08 01:10:49;;;;;;;1.13;0.90;;;21.60;99.90;;;;;;5108192;28;20206;-69
2021/07/08 01:13:17;;;;;;;1.88;1.25;;;21.50;99.90;;;;;;5109318;28;20190;-69
2021/07/08 01:15:44;;;;;;;0.82;0.82;;;21.50;99.90;;;;;;5109469;28;20156;-69
2021/07/08 01:18:10;;;;;;;0.95;0.95;;;21.50;99.90;;;;;;5109394;28;20523;-68
2021/07/08 01:20:39;;;;;;;1.77;1.58;;;21.50;99.90;;;;;;5109510;28;20219;-69
2021/07/08 01:23:06;;;;;;;0.93;0.93;;;21.50;99.90;;;;;;5109296;28;20325;-69
2021/07/08 01:25:37;;;;;;;1.77;1.67;;;21.50;99.90;;;;;;5109349;28;20271;-68
2021/07/08 01:28:06;;;;;;;0.95;0.95;;;21.40;99.90;;;;;;5109354;28;20156;-68
2021/07/08 01:30:33;;;;;;;2.85;1.55;;;21.40;99.90;;;;;;5109492;28;20179;-69
2021/07/08 01:33:00;;;;;;;1.58;1.50;;;21.40;99.90;;;;;;5109239;28;20191;-69
2021/07/08 01:35:27;;;;;;;1.67;1.58;;;21.40;99.90;;;;;;5109381;28;20187;-69
2021/07/08 01:37:53;;;;;;;1.05;0.80;;;21.40;99.90;;;;;;5109215;28;20223;-69
2021/07/08 01:40:21;;;;;;;1.48;1.38;;;21.30;99.90;;;;;;5109262;28;20217;-69
2021/07/08 01:42:47;;;;;;;3.13;1.48;;;21.20;99.90;;;;;;5108902;28;20244;-68
2021/07/08 01:45:16;;;;;;;0.70;0.70;;;21.30;99.90;;;;;;5109052;28;20767;-68
2021/07/08 01:47:43;;;;;;;1.25;1.23;;;21.30;99.90;;;;;;5109172;28;20151;-69
2021/07/08 01:50:17;;;;;;;2.65;1.23;;;21.30;99.90;;;;;;5109203;28;20158;-68
2021/07/08 01:52:43;;;;;;;1.63;1.10;;;21.30;99.90;;;;;;5109138;28;20187;-69
2021/07/08 01:55:10;;;;;;;2.38;1.90;;;21.20;99.90;;;;;;5109107;28;20516;-68
2021/07/08 01:57:41;;;;;;;1.05;1.02;;;21.20;99.90;;;;;;5109153;28;20324;-68
2021/07/08 02:00:09;;;;;;;1.85;1.73;;;21.10;99.90;;;;;;5108967;28;20155;-68
2021/07/08 02:02:35;;;;;;;0.80;0.80;;;21.10;99.90;;;;;;5108966;28;20155;-69
2021/07/08 02:05:02;;;;;;;6.82;2.28;;;21.10;99.90;;;;;;5109007;28;20215;-68
2021/07/08 02:07:28;;;;;;;0.90;0.90;;;21.00;99.90;;;;;;5108933;28;20624;-68
2021/07/08 02:09:53;;;;;;;1.15;0.85;;;21.00;99.90;;;;;;5108911;28;20167;-68
2021/07/08 02:12:19;;;;;;;5.03;0.90;;;21.00;99.90;;;;;;5108850;28;20186;-69
2021/07/08 02:14:45;;;;;;;1.55;1.45;;;21.10;99.90;;;;;;5108890;28;20166;-68
2021/07/08 02:17:11;;;;;;;1.58;1.42;;;21.10;99.90;;;;;;5109071;28;20159;-68
2021/07/08 02:19:37;;;;;;;2.17;2.08;;;21.10;99.90;;;;;;5108866;28;20200;-68
2021/07/08 02:22:03;;;;;;;1.63;1.52;;;21.00;99.90;;;;;;5097431;28;20211;-69
2021/07/08 02:24:29;;;;;;;2.42;1.65;;;21.00;99.90;;;;;;5091925;28;20219;-68
2021/07/08 02:26:55;;;;;;;1.10;1.05;;;21.00;99.90;;;;;;5092070;28;20155;-68
2021/07/08 02:29:22;;;;;;;1.95;1.48;;;21.00;99.90;;;;;;5092035;28;20159;-69
2021/07/08 02:31:49;;;;;;;1.10;1.05;;;21.00;99.90;;;;;;5091778;28;20247;-69
2021/07/08 02:34:15;;;;;;;1.33;1.25;;;21.00;99.90;;;;;;5091759;28;20192;-69
2021/07/08 02:36:41;;;;;;;0.80;0.70;;;21.00;99.90;;;;;;5091931;28;20156;-68
2021/07/08 02:39:07;;;;;;;1.55;1.00;;;21.00;99.90;;;;;;5091730;28;20156;-69
2021/07/08 02:41:33;;;;;;;2.47;2.05;;;21.00;99.90;;;;;;5091515;28;20202;-69
2021/07/08 02:43:59;;;;;;;1.27;1.25;;;21.00;99.90;;;;;;5073264;28;20291;-69
2021/07/08 02:46:25;;;;;;;3.28;2.05;;;20.90;99.90;;;;;;5091449;28;20176;-69
2021/07/08 02:48:51;;;;;;;1.10;1.02;;;20.90;99.90;;;;;;5091581;28;20551;-69
2021/07/08 02:51:17;;;;;;;1.60;1.48;;;21.00;99.90;;;;;;5091486;28;20199;-69
2021/07/08 02:53:43;;;;;;;2.67;2.25;;;20.90;99.90;;;;;;5091413;28;20294;-70
2021/07/08 02:56:11;;;;;;;3.70;1.45;;;20.90;99.90;;;;;;5091371;28;20160;-69
2021/07/08 02:58:38;;;;;;;1.98;1.88;;;21.00;99.90;;;;;;5091247;28;20164;-69
2021/07/08 03:01:04;;;;;;;1.73;1.65;;;21.00;99.90;;;;;;5091196;28;20214;-68
2021/07/08 03:03:30;;;;;;;3.42;1.23;;;21.10;99.90;;;;;;5091522;28;20164;-69
2021/07/08 03:05:56;;;;;;;1.60;1.50;;;21.20;99.90;;;;;;5091084;28;20191;-69
2021/07/08 03:08:22;;;;;;;0.88;0.82;;;21.20;99.90;;;;;;5090997;28;20152;-68
2021/07/08 03:10:48;;;;;;;1.80;1.38;;;21.10;99.90;;;;;;5090992;28;20180;-69
2021/07/08 03:13:14;;;;;;;1.60;1.42;;;21.00;99.90;;;;;;5091128;28;20156;-69
2021/07/08 03:15:40;;;;;;;2.08;1.90;;;21.00;99.90;;;;;;5091020;28;20152;-69
2021/07/08 03:18:06;;;;;;;0.88;0.88;;;20.90;99.90;;;;;;5091225;28;20156;-69
2021/07/08 03:20:34;;;;;;;2.45;1.98;;;20.80;99.90;;;;;;5090895;28;20223;-69
2021/07/08 03:23:03;;;;;;;1.35;1.02;;;20.90;99.90;;;;;;5090970;28;20156;-69
2021/07/08 03:25:29;;;;;;;0.80;0.80;;;20.90;99.90;;;;;;5089687;28;20202;-69
2021/07/08 03:27:56;;;;;;;5.57;1.52;;;20.90;99.90;;;;;;5090521;28;20149;-69
2021/07/08 03:30:24;;;;;;;0.60;0.60;;;21.00;99.90;;;;;;5072639;28;20227;-69
2021/07/08 03:32:52;;;;;;;1.98;1.10;;;21.10;99.90;;;;;;5090239;28;20171;-69
2021/07/08 03:35:18;;;;;;;0.88;0.88;;;21.00;99.90;;;;;;5090602;28;20156;-69
2021/07/08 03:37:45;;;;;;;1.73;1.63;;;21.10;99.90;;;;;;5090400;28;20167;-69
2021/07/08 03:40:16;;;;;;;2.60;1.52;;;21.20;99.90;;;;;;5090378;28;20161;-69
2021/07/08 03:42:43;;;;;;;2.30;1.77;;;21.20;99.90;;;;;;5090042;28;20241;-69
2021/07/08 03:45:10;;;;;;;1.75;1.65;;;21.20;99.90;;;;;;5090167;28;20184;-68
2021/07/08 03:47:36;;;;;;;2.85;1.88;;;21.20;99.90;;;;;;5090374;28;20178;-69
2021/07/08 03:50:05;;;;;;;1.38;1.25;;;21.30;99.90;;;;;;5089978;28;20164;-69
2021/07/08 03:52:31;;;;;;;1.10;1.10;;;21.30;99.90;;;;;;5090024;28;20188;-68
2021/07/08 03:54:57;;;;;;;2.05;1.83;;;21.30;99.90;;;;;;5090084;28;20165;-69
2021/07/08 03:57:23;;;;;;;2.83;1.38;;;21.40;99.90;;;;;;5089973;28;20219;-69
2021/07/08 03:59:49;;;;;;;1.15;1.05;;;21.70;99.90;;;;;;5071917;28;20621;-69
2021/07/08 04:02:15;;;;;;;0.90;0.80;;;22.30;99.90;;;;;;5089799;28;20223;-69
2021/07/08 04:04:41;;;;;;;0.75;0.75;;;22.90;99.90;;;;;;5089680;28;20191;-69
2021/07/08 04:07:09;;;;;;;7.82;1.58;;;23.40;99.90;;;;;;5089972;28;20152;-69
2021/07/08 04:09:35;;;;;;;0.85;0.85;;;23.50;99.90;;;;;;5089782;28;20219;-69
2021/07/08 04:12:01;;;;;;;0.77;0.70;;;23.90;99.90;;;;;;5089463;28;20199;-69
2021/07/08 04:14:27;;;;;;;0.90;0.90;;;24.30;99.90;;;;;;5089452;28;20159;-69
2021/07/08 04:16:53;;;;;;;4.03;1.85;;;24.70;99.90;;;;;;5089695;28;20163;-69
2021/07/08 04:19:19;;;;;;;2.78;2.00;;;25.20;99.90;;;;;;5089602;28;20167;-69
2021/07/08 04:21:45;;;;;;;1.00;0.85;;;25.20;99.90;;;;;;5089354;28;20187;-69
2021/07/08 04:24:11;;;;;;;1.73;1.38;;;25.10;99.90;;;;;;5089059;28;20164;-69
2021/07/08 04:26:38;;;;;;;0.77;0.77;;;24.80;99.90;;;;;;5089289;28;20167;-69
2021/07/08 04:29:04;;;;;;;7.10;1.65;;;25.00;99.90;;;;;;5089445;28;20167;-69
2021/07/08 04:31:31;;;;;;;2.63;2.42;;;24.80;99.90;;;;;;5089083;28;20183;-69
2021/07/08 04:33:57;;;;;;;2.38;2.03;;;24.90;99.90;;;;;;5089342;28;20159;-69
2021/07/08 04:36:23;;;;;;;0.60;0.57;;;24.90;99.90;;;;;;5089314;28;20190;-69
2021/07/08 04:38:53;;;;;;;2.15;1.95;;;25.10;99.90;;;;;;5088824;28;20168;-69
2021/07/08 04:41:21;;;;;;;3.08;2.70;;;25.30;99.90;;;;;;5089229;28;20207;-69
2021/07/08 04:43:47;;;;;;;4.28;2.30;;;25.40;99.90;;;;;;5088213;28;20227;-69
2021/07/08 04:46:13;;;;;;;0.95;0.93;;;26.00;99.90;;;;;;5070882;28;20286;-69
2021/07/08 04:48:41;;;;;;;1.33;1.00;;;27.00;99.90;;;;;;5089111;28;20148;-69
2021/07/08 04:51:07;;;;;;;1.52;1.42;;;27.30;99.90;;;;;;5088845;28;20191;-69
2021/07/08 04:53:33;;;;;;;1.38;1.00;;;26.60;99.90;;;;;;5089011;28;20166;-69
2021/07/08 04:55:59;;;;;;;3.03;2.03;;;26.50;99.90;;;;;;5089089;28;20171;-69
2021/07/08 04:58:26;;;;;;;1.60;1.15;;;26.50;99.90;;;;;;5089038;28;20162;-69
2021/07/08 05:00:52;;;;;;;1.02;0.98;;;26.70;99.90;;;;;;5088960;28;20211;-69
2021/07/08 05:03:18;;;;;;;3.17;1.92;;;27.50;99.90;;;;;;5088590;28;20167;-68
2021/07/08 05:05:44;;;;;;;0.85;0.77;;;27.90;99.90;;;;;;5088717;28;20188;-69
2021/07/08 05:08:10;;;;;;;2.05;1.23;;;27.70;99.90;;;;;;5088912;28;20144;-69
2021/07/08 05:10:36;;;;;;;2.22;1.67;;;27.90;99.90;;;;;;5088594;28;20371;-68
2021/07/08 05:13:02;;;;;;;1.92;1.77;;;27.70;99.90;;;;;;5088818;28;20148;-69
2021/07/08 05:15:28;;;;;;;2.35;1.48;;;27.40;99.90;;;;;;5088651;28;20162;-69
2021/07/08 05:17:54;;;;;;;3.25;1.95;;;27.60;99.90;;;;;;5088529;28;20156;-69
2021/07/08 05:20:20;;;;;;;1.73;1.48;;;27.50;99.90;;;;;;5088725;28;20182;-69
2021/07/08 05:22:47;;;;;;;1.80;1.33;;;27.20;99.90;;;;;;5070302;28;20191;-69
2021/07/08 05:25:15;;;;;;;0.93;0.90;;;28.00;99.90;;;;;;5088351;28;20217;-69
2021/07/08 05:27:42;;;;;;;3.40;2.97;;;28.00;99.90;;;;;;5088731;28;20159;-69
2021/07/08 05:30:09;;;;;;;0.65;0.63;;;28.40;99.90;;;;;;5070264;28;20163;-69
2021/07/08 05:32:36;;;;;;;1.70;1.42;;;29.10;99.90;;;;;;5088366;28;20187;-69
2021/07/08 05:35:03;;;;;;;1.52;1.20;;;30.20;99.90;;;;;;5088492;28;20186;-69
2021/07/08 05:37:30;;;;;;;11.60;1.73;;;30.10;99.90;;;;;;5070412;28;20163;-69
2021/07/08 05:39:56;;;;;;;1.60;1.05;;;30.40;99.90;;;;;;5070241;28;20168;-69
2021/07/08 05:42:22;;;;;;;4.30;1.70;;;31.00;99.90;;;;;;5088276;28;20187;-70
2021/07/08 05:44:49;;;;;;;5.32;2.25;;;31.40;99.90;;;;;;5088088;28;20206;-69
2021/07/08 05:47:16;;;;;;;1.75;1.27;;;31.50;99.90;;;;;;5088314;28;20163;-70
2021/07/08 05:49:42;;;;;;;2.97;1.17;;;31.90;99.90;;;;;;5070585;28;20178;-70
2021/07/08 05:52:09;;;;;;;1.95;1.50;;;32.60;99.90;;;;;;5087832;28;20269;-70
2021/07/08 05:54:34;;;;;;;2.75;2.03;;;33.70;99.90;;;;;;5089861;28;20160;-69
2021/07/08 05:57:01;;;;;;;1.20;1.20;;;33.40;99.90;;;;;;5092250;28;20243;-70
2021/07/08 05:59:28;;;;;;;1.48;1.38;;;33.80;99.90;;;;;;5074199;28;20175;-68
2021/07/08 06:01:58;;;;;;;2.50;1.50;;;34.80;99.90;;;;;;5073917;28;20226;-70
2021/07/08 06:04:24;;;;;;;2.28;1.67;;;35.10;99.90;;;;;;5073928;28;20191;-70
2021/07/08 06:06:49;;;;;;;3.70;1.70;;;34.40;99.90;;;;;;5073882;28;20162;-69
2021/07/08 06:09:15;;;;;;;8.30;1.52;;;33.90;99.90;;;;;;5092027;28;20156;-69
2021/07/08 06:11:42;;;;;;;3.28;1.98;;;33.60;99.90;;;;;;5091607;28;20183;-70
2021/07/08 06:14:08;;;;;;;2.83;2.13;;;33.70;99.90;;;;;;5091966;28;20224;-70
2021/07/08 06:16:34;;;;;;;9.07;2.95;;;33.90;99.90;;;;;;5091893;28;20278;-70
2021/07/08 06:19:00;;;;;;;6.38;1.00;;;32.50;99.90;;;;;;5091642;28;20160;-70
2021/07/08 06:21:26;;;;;;;1.50;1.40;;;32.30;99.90;;;;;;5091770;28;20194;-69
2021/07/08 06:23:52;;;;;;;1.33;0.95;;;33.30;99.90;;;;;;5091423;28;20159;-69
2021/07/08 06:26:18;;;;;;;1.23;1.02;;;34.00;99.90;;;;;;5073090;28;20196;-68
2021/07/08 06:28:44;;;;;;;0.93;0.68;;;32.80;99.90;;;;;;5073004;28;20690;-68
2021/07/08 06:31:10;;;;;;;2.05;1.50;;;33.30;99.90;;;;;;5091512;28;20183;-68
2021/07/08 06:33:36;;;;;;;1.42;1.33;;;34.70;99.90;;;;;;5091184;28;20160;-68
2021/07/08 06:36:02;;;;;;;1.33;1.23;;;35.70;99.90;;;;;;5091565;28;20168;-68
2021/07/08 06:38:28;;;;;;;1.52;1.23;;;36.20;99.90;;;;;;5091537;28;20167;-68
2021/07/08 06:40:54;;;;;;;1.38;1.08;;;36.20;99.90;;;;;;5091072;28;20218;-68
2021/07/08 06:43:20;;;;;;;1.10;0.95;;;35.50;99.90;;;;;;5090677;28;20286;-68
2021/07/08 06:45:46;;;;;;;1.67;0.95;;;34.90;99.90;;;;;;5090936;28;20883;-68
2021/07/08 06:48:13;;;;;;;1.00;0.93;;;34.50;99.90;;;;;;5089724;28;20215;-69
2021/07/08 06:50:41;;;;;;;1.20;1.10;;;34.90;99.90;;;;;;5091154;28;20552;-69
2021/07/08 06:53:07;;;;;;;1.02;0.95;;;36.00;99.90;;;;;;5091523;28;20231;-69
2021/07/08 06:55:34;;;;;;;3.03;1.40;;;34.70;99.90;;;;;;5091410;28;20205;-69
2021/07/08 06:58:00;;;;;;;1.40;1.30;;;35.20;99.90;;;;;;5095076;28;20176;-68
2021/07/08 07:00:28;;;;;;;0.57;0.57;;;35.50;99.90;;;;;;5102462;28;20198;-68
2021/07/08 07:02:56;;;;;;;1.27;1.17;;;35.30;99.90;;;;;;5109319;28;20173;-68
2021/07/08 07:05:23;;;;;;;1.27;1.15;;;34.60;99.90;;;;;;5109011;28;20193;-68
2021/07/08 07:07:49;;;;;;;1.63;0.80;;;34.30;99.90;;;;;;5110419;28;20214;-68
2021/07/08 07:10:16;;;;;;;0.93;0.93;;;35.10;99.90;;;;;;5110960;28;20183;-68
2021/07/08 07:12:44;;;;;;;0.75;0.75;;;35.80;99.90;;;;;;5111165;28;20178;-70
2021/07/08 07:15:10;;;;;;;0.80;0.80;;;35.60;99.90;;;;;;5110397;28;20178;-68
2021/07/08 07:17:38;;;;;;;10.38;1.30;;;34.80;99.90;;;;;;5110946;28;20167;-70
2021/07/08 07:20:10;;;;;;;21.45;2.78;;;33.80;99.90;;;;;;5092717;28;20226;-70
2021/07/08 07:22:37;;;;;;;0.98;0.93;;;33.80;99.90;;;;;;5074524;28;20175;-70
2021/07/08 07:25:05;;;;;;;2.03;1.48;;;33.80;99.90;;;;;;5070825;28;20202;-71
2021/07/08 07:27:31;;;;;;;3.30;1.38;;;34.30;99.90;;;;;;5085811;28;20167;-70
2021/07/08 07:30:02;;;;;;;0.95;0.43;;;33.60;99.90;;;;;;5090402;28;20675;-71
2021/07/08 07:32:28;;;;;;;1.95;0.98;;;33.50;99.90;;;;;;5090514;28;20179;-70
2021/07/08 07:34:54;;;;;;;2.92;1.42;;;33.30;99.90;;;;;;5090498;28;20234;-71
2021/07/08 07:37:20;;;;;;;5.07;1.70;;;33.20;99.90;;;;;;5075215;28;20232;-71
2021/07/08 07:39:46;;;;;;;1.70;1.60;;;33.80;99.90;;;;;;5070227;28;20565;-71
2021/07/08 07:42:12;;;;;;;1.50;1.40;;;34.30;99.90;;;;;;5070298;28;20195;-71
2021/07/08 07:44:43;;;;;;;1.60;0.77;;;35.10;99.90;;;;;;5069763;28;20239;-71
2021/07/08 07:47:13;;;;;;;0.70;0.57;;;34.60;99.90;;;;;;5069384;28;20149;-71
2021/07/08 07:49:40;;;;;;;1.15;1.10;;;34.30;99.90;;;;;;5069399;28;20634;-70
2021/07/08 07:52:07;;;;;;;1.23;1.13;;;34.20;99.90;;;;;;5069738;28;20236;-70
2021/07/08 07:54:34;;;;;;;0.63;0.50;;;34.40;99.90;;;;;;5084988;28;20171;-70
2021/07/08 07:57:05;;;;;;;2.72;1.80;;;34.40;99.90;;;;;;5070781;28;20163;-70
2021/07/08 07:59:38;;;;;;;1.38;1.27;;;35.30;99.90;;;;;;5088928;28;20579;-70
2021/07/08 08:02:09;;;;;;;7.35;2.00;;;35.70;99.90;;;;;;5071143;28;20230;-70
2021/07/08 08:04:41;;;;;;;0.85;0.85;;;35.60;99.90;;;;;;5089276;28;20197;-71
2021/07/08 08:09:51;;;;;;;1.42;1.20;;;36.40;99.90;;;;;;5089153;28;20202;-71
2021/07/08 08:12:18;;;;;;;1.30;0.68;;;37.50;99.90;;;;;;5089328;28;20164;-70
2021/07/08 08:14:43;;;;;;;1.15;1.02;;;38.10;99.90;;;;;;5089069;28;20226;-70
2021/07/08 08:17:09;;;;;;;1.95;1.58;;;38.60;99.90;;;;;;5089428;28;20156;-70
2021/07/08 08:19:36;;;;;;;1.33;1.23;;;38.20;99.90;;;;;;5087173;28;20683;-70
2021/07/08 08:22:02;;;;;;;1.20;0.90;;;37.70;99.90;;;;;;5071625;28;20266;-72
2021/07/08 08:24:28;;;;;;;3.25;1.23;;;37.80;99.90;;;;;;5084452;28;20227;-70
2021/07/08 08:26:54;;;;;;;1.40;1.27;;;37.40;99.90;;;;;;5089789;28;20163;-71
2021/07/08 08:29:20;;;;;;;2.53;1.70;;;36.00;99.90;;;;;;5108388;28;20273;-70
2021/07/08 08:31:47;;;;;;;0.98;0.90;;;34.70;99.90;;;;;;5108716;28;20176;-70
2021/07/08 08:34:13;;;;;;;1.40;1.20;;;34.70;99.90;;;;;;5088349;28;20693;-70
2021/07/08 08:36:39;;;;;;;1.38;1.27;;;35.10;99.90;;;;;;5088753;28;20159;-70
2021/07/08 08:39:06;;;;;;;1.20;1.20;;;35.40;99.90;;;;;;5087993;28;20209;-70
2021/07/08 08:41:34;;;;;;;1.55;1.33;;;36.10;99.90;;;;;;5088643;28;20159;-71
2021/07/08 08:44:01;;;;;;;2.03;1.48;;;37.30;99.90;;;;;;5088382;28;20223;-70
2021/07/08 08:46:27;;;;;;;1.33;1.23;;;36.40;99.90;;;;;;5070597;28;20189;-71
2021/07/08 08:48:55;;;;;;;1.85;1.40;;;37.60;99.90;;;;;;5088859;28;20644;-71
2021/07/08 08:51:21;;;;;;;0.88;0.88;;;37.90;99.90;;;;;;5088935;28;20230;-71
2021/07/08 08:53:47;;;;;;;1.70;1.60;;;37.70;99.90;;;;;;5070492;28;20299;-71
2021/07/08 08:56:13;;;;;;;2.67;1.30;;;37.40;99.90;;;;;;5088394;28;20167;-69
2021/07/08 08:58:39;;;;;;;2.47;1.50;;;36.60;99.90;;;;;;5088350;28;20179;-70
2021/07/08 09:01:07;;;;;;;8.63;1.20;;;36.50;99.90;;;;;;5088589;28;20167;-70
2021/07/08 09:03:34;;;;;;;1.48;1.38;;;35.20;99.90;;;;;;5088637;28;20160;-70
2021/07/08 09:06:06;;;;;;;1.90;1.30;;;34.20;99.90;;;;;;5088585;28;20279;-70
2021/07/08 09:08:35;;;;;;;0.85;0.85;;;34.30;99.90;;;;;;5070478;28;20170;-70
2021/07/08 09:11:13;;;;;;;1.00;0.85;;;34.80;99.90;;;;;;5088627;28;20179;-70
2021/07/08 09:13:45;;;;;;;1.73;1.30;;;35.00;99.90;;;;;;5088664;28;20163;-70
2021/07/08 09:16:21;;;;;;;1.13;1.02;;;34.90;99.90;;;;;;5088528;28;20186;-70
2021/07/08 09:19:01;;;;;;;1.58;1.27;;;34.30;99.90;;;;;;5070195;28;20190;-70
2021/07/08 09:21:29;;;;;;;1.10;0.98;;;34.80;99.90;;;;;;5088505;28;20159;-70
2021/07/08 09:24:18;;;;;;;2.03;0.82;;;35.70;99.90;;;;;;5088439;28;20171;-70
2021/07/08 09:27:09;;;;;;;0.60;0.55;;;35.50;99.90;;;;;;5068373;28;20183;-70
2021/07/08 09:29:37;;;;;;;0.60;0.60;;;35.80;99.90;;;;;;5069738;28;20214;-70
2021/07/08 09:32:11;;;;;;;0.52;0.52;;;36.00;99.90;;;;;;5072396;28;20156;-70
2021/07/08 09:34:39;;;;;;;1.52;1.00;;;36.10;99.90;;;;;;5072383;28;20160;-70
2021/07/08 09:37:13;;;;;;;1.42;1.33;;;36.50;99.90;;;;;;5072470;28;20172;-71
2021/07/08 09:39:45;;;;;;;2.17;0.88;;;36.70;99.90;;;;;;5071980;28;20219;-71
2021/07/08 09:42:32;;;;;;;5.65;0.85;;;37.90;99.90;;;;;;5072257;28;20183;-71
2021/07/08 09:45:13;;;;;;;0.93;0.93;;;37.00;99.90;;;;;;5058089;28;20715;-70
2021/07/08 09:47:41;;;;;;;1.60;1.40;;;36.30;99.90;;;;;;5072028;28;20172;-69
2021/07/08 09:50:34;;;;;;;1.20;0.70;;;35.70;99.90;;;;;;5069918;28;20279;-69
2021/07/08 09:53:04;;;;;;;1.48;1.30;;;35.20;99.90;;;;;;5070655;28;20181;-69
2021/07/08 09:55:58;;;;;;;2.05;1.67;;;34.90;99.90;;;;;;5071257;28;20653;-70
2021/07/08 09:58:26;;;;;;;1.20;0.93;;;35.90;99.90;;;;;;5053633;28;20179;-69
2021/07/08 10:00:52;;;;;;;1.55;1.30;;;35.70;99.90;;;;;;5071139;28;20186;-69
2021/07/08 10:03:19;;;;;;;0.93;0.80;;;34.90;99.90;;;;;;5071843;28;20164;-69
2021/07/08 10:05:46;;;;;;;0.82;0.82;;;34.90;99.90;;;;;;5071717;28;20204;-69
2021/07/08 10:08:12;;;;;;;0.93;0.90;;;34.60;99.90;;;;;;5071451;28;20160;-69
2021/07/08 10:10:40;;;;;;;0.85;0.85;;;34.90;99.90;;;;;;5071273;28;20191;-69
2021/07/08 10:13:09;;;;;;;1.75;1.23;;;35.00;99.90;;;;;;5071652;28;20206;-69
2021/07/08 10:15:37;;;;;;;2.33;1.15;;;35.00;99.90;;;;;;5071582;28;20164;-69
2021/07/08 10:18:04;;;;;;;0.70;0.70;;;35.40;99.90;;;;;;5071428;28;20165;-69
2021/07/08 10:20:31;;;;;;;3.20;1.33;;;35.80;99.90;;;;;;5071101;28;20187;-69
2021/07/08 10:23:00;;;;;;;2.38;1.23;;;36.60;99.90;;;;;;5071116;28;20210;-69
2021/07/08 10:25:26;;;;;;;0.82;0.82;;;35.80;99.90;;;;;;5083798;28;20195;-69
2021/07/08 10:27:54;;;;;;;1.20;0.70;;;35.80;99.90;;;;;;5091246;28;20172;-69
2021/07/08 10:30:21;;;;;;;1.02;0.93;;;36.70;99.90;;;;;;5091260;28;20198;-70
2021/07/08 10:32:58;;;;;;;2.20;0.98;;;37.10;99.90;;;;;;5091116;28;20182;-69
2021/07/08 10:35:43;;;;;;;1.10;1.05;;;36.20;99.90;;;;;;5073078;28;20171;-69
2021/07/08 10:38:27;;;;;;;1.30;1.15;;;36.70;99.90;;;;;;5091063;28;20155;-70
2021/07/08 10:40:59;;;;;;;1.65;1.02;;;37.80;99.90;;;;;;5089517;28;20184;-70
2021/07/08 10:43:34;;;;;;;2.42;2.08;;;37.30;99.90;;;;;;5090801;28;20211;-69
2021/07/08 10:46:06;;;;;;;1.52;1.42;;;35.60;99.90;;;;;;5072933;28;20562;-70
2021/07/08 10:48:43;;;;;;;0.57;0.57;;;35.10;99.90;;;;;;5090929;28;20250;-69
2021/07/08 10:51:15;;;;;;;0.82;0.70;;;35.70;99.90;;;;;;5091022;28;20159;-69
2021/07/08 10:53:42;;;;;;;2.05;1.85;;;36.10;99.90;;;;;;5072685;28;20303;-69
2021/07/08 10:56:12;;;;;;;1.30;0.95;;;36.00;99.90;;;;;;5090742;28;20167;-69
2021/07/08 10:59:13;;;;;;;1.23;1.13;;;35.70;99.90;;;;;;5090590;28;20148;-69
2021/07/08 11:01:42;;;;;;;1.67;1.33;;;35.60;99.90;;;;;;5073153;28;20188;-69
2021/07/08 11:04:09;;;;;;;1.02;0.82;;;35.70;99.90;;;;;;5090449;28;20238;-68
2021/07/08 11:06:38;;;;;;;1.67;1.58;;;35.60;99.90;;;;;;5072512;28;20171;-69
2021/07/08 11:09:16;;;;;;;1.83;1.33;;;36.10;99.90;;;;;;5090350;28;20191;-68
2021/07/08 11:11:45;;;;;;;3.42;1.27;;;36.80;99.90;;;;;;5072379;28;20166;-69
2021/07/08 11:14:12;;;;;;;1.30;1.08;;;36.30;99.90;;;;;;5090413;28;20249;-69
2021/07/08 11:17:07;;;;;;;1.45;1.35;;;35.70;99.90;;;;;;5090386;28;20176;-69
2021/07/08 11:19:47;;;;;;;2.67;2.08;;;35.20;99.90;;;;;;5072212;28;20187;-69
2021/07/08 11:22:22;;;;;;;1.08;1.00;;;34.90;99.90;;;;;;5090306;28;20162;-69
2021/07/08 11:24:53;;;;;;;0.98;0.98;;;35.70;99.90;;;;;;5082560;28;20199;-69
2021/07/08 11:27:28;;;;;;;2.78;1.70;;;35.10;99.90;;;;;;5060488;28;20173;-69
2021/07/08 11:30:01;;;;;;;1.58;1.10;;;35.00;99.90;;;;;;5110300;28;20193;-69
2021/07/08 11:32:42;;;;;;;1.38;1.33;;;35.00;99.90;;;;;;5110338;28;20147;-69
2021/07/08 11:35:21;;;;;;;1.17;1.02;;;35.30;99.90;;;;;;5110431;28;20230;-69
2021/07/08 11:37:56;;;;;;;8.45;1.55;;;35.70;99.90;;;;;;5110205;28;20159;-69
2021/07/08 11:40:23;;;;;;;0.95;0.93;;;35.80;99.90;;;;;;5094975;28;20213;-69
2021/07/08 11:42:50;;;;;;;1.80;1.63;;;36.00;99.90;;;;;;5089617;28;20230;-68
2021/07/08 11:45:22;;;;;;;2.53;1.40;;;35.70;99.90;;;;;;5089812;28;20565;-69
2021/07/08 11:47:51;;;;;;;1.35;1.20;;;35.60;99.90;;;;;;5071473;28;20176;-69
2021/07/08 11:50:25;;;;;;;2.80;1.92;;;36.20;99.90;;;;;;5071506;28;20210;-69
2021/07/08 11:53:13;;;;;;;1.92;1.80;;;35.60;99.90;;;;;;5071295;28;20167;-69
2021/07/08 11:55:49;;;;;;;3.15;1.70;;;35.30;99.90;;;;;;5071275;28;20174;-69
2021/07/08 11:58:22;;;;;;;2.15;1.17;;;34.50;99.90;;;;;;5089379;28;20202;-69
2021/07/08 12:00:50;;;;;;;9.70;1.88;;;34.80;99.90;;;;;;5089621;28;20539;-69
2021/07/08 12:03:24;;;;;;;4.30;1.40;;;34.90;99.90;;;;;;5089498;28;20171;-69
2021/07/08 12:06:15;;;;;;;1.33;1.23;;;34.90;99.90;;;;;;5089415;28;20194;-70
2021/07/08 12:08:55;;;;;;;2.00;0.90;;;34.00;99.90;;;;;;5089540;28;20164;-71
2021/07/08 12:11:29;;;;;;;1.75;1.17;;;34.20;99.90;;;;;;5071396;28;20629;-71
2021/07/08 12:14:07;;;;;;;0.73;0.73;;;34.00;99.90;;;;;;5071192;28;20250;-69
2021/07/08 12:16:37;;;;;;;0.98;0.98;;;33.50;99.90;;;;;;5089355;28;20163;-70
2021/07/08 12:19:05;;;;;;;1.55;1.42;;;33.00;99.90;;;;;;5071383;28;20202;-69
2021/07/08 12:21:34;;;;;;;2.35;1.73;;;32.90;99.90;;;;;;5089400;28;20163;-70
2021/07/08 12:24:09;;;;;;;0.73;0.73;;;32.60;99.90;;;;;;5089261;28;20175;-69
2021/07/08 12:26:39;;;;;;;1.45;1.20;;;32.40;99.90;;;;;;5089266;28;20270;-69
2021/07/08 12:29:16;;;;;;;1.55;1.45;;;32.10;99.90;;;;;;5105402;28;20163;-70
2021/07/08 12:31:51;;;;;;;1.70;1.60;;;32.10;99.90;;;;;;5089226;28;20163;-70
2021/07/08 12:34:20;;;;;;;3.30;1.85;;;32.40;99.90;;;;;;5070982;28;20175;-71
2021/07/08 12:36:47;;;;;;;2.75;1.95;;;32.50;99.90;;;;;;5070732;28;20187;-69
2021/07/08 12:39:19;;;;;;;2.35;2.15;;;32.30;99.90;;;;;;5088738;28;20183;-69
2021/07/08 12:41:47;;;;;;;1.42;1.33;;;32.30;99.90;;;;;;5088996;28;20159;-69
2021/07/08 12:44:14;;;;;;;1.70;1.55;;;32.60;99.90;;;;;;5070398;28;20214;-69
2021/07/08 12:46:42;;;;;;;1.40;1.30;;;32.70;99.90;;;;;;5088811;28;20152;-69
2021/07/08 12:49:09;;;;;;;2.08;1.83;;;32.20;99.90;;;;;;5070832;28;20247;-69
2021/07/08 12:51:36;;;;;;;1.73;1.63;;;32.50;99.90;;;;;;5088661;28;20195;-69
2021/07/08 12:54:03;;;;;;;1.88;1.55;;;32.50;99.90;;;;;;5070735;28;20167;-69
2021/07/08 12:56:30;;;;;;;2.40;2.08;;;32.20;99.90;;;;;;5070145;28;20199;-69